createdAt,value
2018-12-14T18:16:17.725Z,1008.06
2018-12-14T18:17:17.698Z,1008.07
2018-12-14T18:18:17.724Z,1008.12
2018-12-14T18:19:17.742Z,1008.09
2018-12-14T18:20:17.768Z,1008.12
2018-12-14T18:21:17.835Z,1008.11
2018-12-14T18:22:17.811Z,1008.09
2018-12-14T18:23:17.829Z,1008.05
2018-12-14T18:24:17.852Z,1008.08
2018-12-14T18:25:17.872Z,1008.07
2018-12-14T18:26:17.893Z,1008.1
2018-12-14T18:27:17.912Z,1008.07
2018-12-14T18:28:17.938Z,1008.13
2018-12-14T18:29:17.957Z,1008.11
2018-12-14T18:30:17.977Z,1008.08
2018-12-14T18:31:18.000Z,1008.12
2018-12-14T18:32:18.026Z,1008.11
2018-12-14T18:33:18.043Z,1008.12
2018-12-14T18:34:18.068Z,1008.15
2018-12-14T18:35:18.087Z,1008.18
2018-12-14T18:36:18.160Z,1008.17
2018-12-14T18:37:18.127Z,1008.2
2018-12-14T18:38:18.150Z,1008.18
2018-12-14T18:39:18.171Z,1008.18
2018-12-14T18:40:18.192Z,1008.19
2018-12-14T18:41:18.268Z,1008.23
2018-12-14T18:42:18.239Z,1008.23
2018-12-14T18:43:18.259Z,1008.21
2018-12-14T18:44:18.279Z,1008.25
2018-12-14T18:45:18.300Z,1008.2
2018-12-14T18:46:18.324Z,1008.24
2018-12-14T18:47:18.347Z,1008.23
2018-12-14T18:48:18.363Z,1008.26
2018-12-14T18:49:18.385Z,1008.32
2018-12-14T18:50:18.407Z,1008.25
2018-12-14T18:51:18.426Z,1008.3
2018-12-14T18:52:18.449Z,1008.3
2018-12-14T18:53:18.470Z,1008.34
2018-12-14T18:54:18.495Z,1008.3
2018-12-14T18:55:18.513Z,1008.29
2018-12-14T18:56:18.587Z,1008.36
2018-12-14T18:57:18.556Z,1008.36
2018-12-14T18:58:18.576Z,1008.38
2018-12-14T18:59:18.602Z,1008.39
2018-12-14T19:00:18.625Z,1008.36
2018-12-14T19:01:18.693Z,1008.39
2018-12-14T19:02:18.669Z,1008.46
2018-12-14T19:03:18.689Z,1008.51
2018-12-14T19:04:18.708Z,1008.5
2018-12-14T19:05:18.734Z,1008.54
2018-12-14T19:06:18.752Z,1008.52
2018-12-14T19:07:18.775Z,1008.58
2018-12-14T19:08:18.795Z,1008.63
2018-12-14T19:09:18.817Z,1008.66
2018-12-14T19:10:18.842Z,1008.69
2018-12-14T19:11:18.861Z,1008.7
2018-12-14T19:12:18.882Z,1008.74
2018-12-14T19:13:18.910Z,1008.77
2018-12-14T19:14:18.928Z,1008.81
2018-12-14T19:15:18.952Z,1008.83
2018-12-14T19:16:19.175Z,1008.83
2018-12-14T19:17:19.000Z,1008.85
2018-12-14T19:18:19.019Z,1008.83
2018-12-14T19:19:19.041Z,1008.84
2018-12-14T19:20:19.061Z,1008.87
2018-12-14T19:21:19.081Z,1008.88
2018-12-14T19:22:19.103Z,1008.86
2018-12-14T19:23:19.697Z,1008.84
2018-12-14T19:24:19.155Z,1008.86
2018-12-14T19:25:19.175Z,1008.89
2018-12-14T19:26:19.828Z,1008.89
2018-12-14T19:27:19.217Z,1008.97
2018-12-14T19:28:19.296Z,1008.9
2018-12-14T19:29:19.265Z,1008.93
2018-12-14T19:30:19.364Z,1008.96
2018-12-14T19:31:19.306Z,1008.97
2018-12-14T19:32:19.341Z,1009.01
2018-12-14T19:33:19.467Z,1009
2018-12-14T19:34:19.505Z,1009.04
2018-12-14T19:35:19.428Z,1009.04
2018-12-14T19:36:19.434Z,1009.02
2018-12-14T19:37:19.496Z,1009.02
2018-12-14T19:38:19.469Z,1008.99
2018-12-14T19:39:19.489Z,1009.02
2018-12-14T19:40:19.536Z,1009.04
2018-12-14T19:41:19.537Z,1009.01
2018-12-14T19:42:19.587Z,1009.02
2018-12-14T19:43:19.668Z,1009.02
2018-12-14T19:44:19.631Z,1009.03
2018-12-14T19:45:19.637Z,1009
2018-12-14T19:46:19.648Z,1009.02
2018-12-14T19:47:19.670Z,1009.06
2018-12-14T19:48:19.694Z,1009.03
2018-12-14T19:49:19.723Z,1008.99
2018-12-14T19:50:19.741Z,1009.05
2018-12-14T19:51:19.770Z,1009.04
2018-12-14T19:52:19.791Z,1009.03
2018-12-14T19:53:19.811Z,1009.08
2018-12-14T19:54:19.833Z,1009.08
2018-12-14T19:55:19.854Z,1009.05
2018-12-14T19:56:19.879Z,1009.06
2018-12-14T19:57:19.918Z,1009.08
2018-12-14T19:58:19.928Z,1009.09
2018-12-14T19:59:19.948Z,1009.12
2018-12-14T20:00:19.971Z,1009.03
2018-12-14T20:01:19.997Z,1009.13
2018-12-14T20:02:20.018Z,1009.15
2018-12-14T20:03:20.041Z,1009.06
2018-12-14T20:04:20.065Z,1009.1
2018-12-14T20:05:20.092Z,1009.14
2018-12-14T20:06:20.115Z,1009.11
2018-12-14T20:07:20.135Z,1009.12
2018-12-14T20:08:20.157Z,1009.15
2018-12-14T20:09:20.180Z,1009.15
2018-12-14T20:10:20.207Z,1009.14
2018-12-14T20:11:20.227Z,1009.14
2018-12-14T20:12:20.253Z,1009.13
2018-12-14T20:13:20.274Z,1009.14
2018-12-14T20:14:20.300Z,1009.15
2018-12-14T20:15:20.321Z,1009.12
2018-12-14T20:16:20.357Z,1009.17
2018-12-14T20:17:20.367Z,1009.18
2018-12-14T20:18:20.391Z,1009.17
2018-12-14T20:19:20.415Z,1009.19
2018-12-14T20:20:20.441Z,1009.17
2018-12-14T20:21:20.461Z,1009.2
2018-12-14T20:22:20.484Z,1009.2
2018-12-14T20:23:20.508Z,1009.19
2018-12-14T20:24:20.532Z,1009.25
2018-12-14T20:25:20.559Z,1009.21
2018-12-14T20:26:20.578Z,1009.25
2018-12-14T20:27:20.602Z,1009.23
2018-12-14T20:28:20.628Z,1009.21
2018-12-14T20:29:20.649Z,1009.25
2018-12-14T20:30:20.674Z,1009.25
2018-12-14T20:31:20.700Z,1009.26
2018-12-14T20:32:20.722Z,1009.25
2018-12-14T20:33:20.747Z,1009.26
2018-12-14T20:34:20.767Z,1009.26
2018-12-14T20:35:20.791Z,1009.25
2018-12-14T20:36:20.819Z,1009.27
2018-12-14T20:37:20.840Z,1009.27
2018-12-14T20:38:20.863Z,1009.26
2018-12-14T20:39:20.886Z,1009.29
2018-12-14T20:40:20.914Z,1009.28
2018-12-14T20:41:20.933Z,1009.3
2018-12-14T20:42:20.961Z,1009.25
2018-12-14T20:43:20.981Z,1009.26
2018-12-14T20:44:21.004Z,1009.25
2018-12-14T20:45:21.028Z,1009.26
2018-12-14T20:46:21.053Z,1009.29
2018-12-14T20:47:21.077Z,1009.25
2018-12-14T20:48:21.100Z,1009.26
2018-12-14T20:49:21.123Z,1009.27
2018-12-14T20:50:21.148Z,1009.26
2018-12-14T20:51:21.171Z,1009.27
2018-12-14T20:52:21.197Z,1009.22
2018-12-14T20:53:21.218Z,1009.29
2018-12-14T20:54:21.243Z,1009.3
2018-12-14T20:55:21.267Z,1009.28
2018-12-14T20:56:21.291Z,1009.31
2018-12-14T20:57:21.315Z,1009.29
2018-12-14T20:58:21.339Z,1009.29
2018-12-14T20:59:21.367Z,1009.29
2018-12-14T21:00:21.581Z,1009.24
2018-12-14T21:01:21.413Z,1009.26
2018-12-14T21:02:21.438Z,1009.22
2018-12-14T21:03:21.458Z,1009.24
2018-12-14T21:04:21.482Z,1009.24
2018-12-14T21:05:21.507Z,1009.21
2018-12-14T21:06:21.530Z,1009.22
2018-12-14T21:07:21.557Z,1009.19
2018-12-14T21:08:21.577Z,1009.2
2018-12-14T21:09:21.606Z,1009.18
2018-12-14T21:10:21.624Z,1009.2
2018-12-14T21:11:21.649Z,1009.19
2018-12-14T21:12:21.677Z,1009.16
2018-12-14T21:13:21.697Z,1009.16
2018-12-14T21:14:21.720Z,1009.13
2018-12-14T21:15:21.744Z,1009.12
2018-12-14T21:16:25.833Z,1009.11
2018-12-14T21:17:21.793Z,1009.11
2018-12-14T21:18:21.815Z,1009.09
2018-12-14T21:19:21.843Z,1009.08
2018-12-14T21:20:21.865Z,1009.11
2018-12-14T21:21:21.890Z,1009.06
2018-12-14T21:22:21.913Z,1009.1
2018-12-14T21:23:21.933Z,1009.06
2018-12-14T21:24:21.954Z,1009.08
2018-12-14T21:25:21.982Z,1009.03
2018-12-14T21:26:22.001Z,1009.06
2018-12-14T21:27:22.024Z,1009.13
2018-12-14T21:28:22.052Z,1009.15
2018-12-14T21:29:22.072Z,1009.15
2018-12-14T21:30:22.093Z,1009.16
2018-12-14T21:31:22.116Z,1009.15
2018-12-14T21:32:22.137Z,1009.16
2018-12-14T21:33:22.166Z,1009.15
2018-12-14T21:34:22.187Z,1009.22
2018-12-14T21:35:22.209Z,1009.16
2018-12-14T21:36:22.227Z,1009.18
2018-12-14T21:37:22.253Z,1009.16
2018-12-14T21:38:22.275Z,1009.09
2018-12-14T21:39:22.299Z,1009.07
2018-12-14T21:40:22.316Z,1009.05
2018-12-14T21:41:22.345Z,1009.09
2018-12-14T21:42:22.360Z,1009.05
2018-12-14T21:43:22.384Z,1009.01
2018-12-14T21:44:22.405Z,1009.02
2018-12-14T21:45:22.425Z,1009.04
2018-12-14T21:46:22.449Z,1009.04
2018-12-14T21:47:22.473Z,1008.98
2018-12-14T21:48:22.491Z,1008.98
2018-12-14T21:49:22.514Z,1009.04
2018-12-14T21:50:22.535Z,1009
2018-12-14T21:51:22.561Z,1008.97
2018-12-14T21:52:22.578Z,1009
2018-12-14T21:53:22.603Z,1008.94
2018-12-14T21:54:22.625Z,1008.94
2018-12-14T21:55:22.642Z,1008.95
2018-12-14T21:56:22.664Z,1008.92
2018-12-14T21:57:22.788Z,1008.9
2018-12-14T21:58:22.714Z,1008.9
2018-12-14T21:59:22.727Z,1008.86
2018-12-14T22:00:22.749Z,1008.94
2018-12-14T22:01:22.775Z,1008.89
2018-12-14T22:02:22.792Z,1008.85
2018-12-14T22:03:22.813Z,1008.88
2018-12-14T22:04:22.834Z,1008.85
2018-12-14T22:05:22.858Z,1008.84
2018-12-14T22:06:22.874Z,1008.84
2018-12-14T22:07:22.896Z,1008.82
2018-12-14T22:08:22.917Z,1008.82
2018-12-14T22:09:22.941Z,1008.85
2018-12-14T22:10:22.958Z,1008.83
2018-12-14T22:11:22.983Z,1008.78
2018-12-14T22:12:23.004Z,1008.81
2018-12-14T22:13:23.026Z,1008.81
2018-12-14T22:14:23.048Z,1008.82
2018-12-14T22:15:23.067Z,1008.8
2018-12-14T22:16:23.084Z,1008.8
2018-12-14T22:17:23.104Z,1008.79
2018-12-14T22:18:23.129Z,1008.77
2018-12-14T22:19:23.150Z,1008.78
2018-12-14T22:20:23.166Z,1008.77
2018-12-14T22:21:23.190Z,1008.8
2018-12-14T22:22:23.210Z,1008.79
2018-12-14T22:23:23.234Z,1008.8
2018-12-14T22:24:23.254Z,1008.86
2018-12-14T22:25:23.267Z,1008.84
2018-12-14T22:26:23.288Z,1008.8
2018-12-14T22:27:23.310Z,1008.84
2018-12-14T22:28:23.333Z,1008.78
2018-12-14T22:29:23.349Z,1008.85
2018-12-14T22:30:23.375Z,1008.84
2018-12-14T22:31:23.390Z,1008.82
2018-12-14T22:32:23.414Z,1008.83
2018-12-14T22:33:23.431Z,1008.81
2018-12-14T22:34:23.455Z,1008.8
2018-12-14T22:35:23.471Z,1008.8
2018-12-14T22:36:23.490Z,1008.78
2018-12-14T22:37:23.514Z,1008.81
2018-12-14T22:38:23.530Z,1008.79
2018-12-14T22:39:23.557Z,1008.76
2018-12-14T22:40:23.571Z,1008.79
2018-12-14T22:41:23.592Z,1008.8
2018-12-14T22:42:23.614Z,1008.8
2018-12-14T22:43:23.629Z,1008.8
2018-12-14T22:44:23.657Z,1008.81
2018-12-14T22:45:23.674Z,1008.82
2018-12-14T22:46:23.694Z,1008.8
2018-12-14T22:47:23.710Z,1008.8
2018-12-14T22:48:23.729Z,1008.85
2018-12-14T22:49:23.754Z,1008.84
2018-12-14T22:50:23.774Z,1008.82
2018-12-14T22:51:23.789Z,1008.83
2018-12-14T22:52:23.810Z,1008.8
2018-12-14T22:53:23.828Z,1008.84
2018-12-14T22:54:23.851Z,1008.83
2018-12-14T22:55:23.867Z,1008.79
2018-12-14T22:56:23.888Z,1008.83
2018-12-14T22:57:23.907Z,1008.8
2018-12-14T22:58:23.927Z,1008.85
2018-12-14T22:59:23.946Z,1008.85
2018-12-14T23:00:23.966Z,1008.82
2018-12-14T23:01:23.989Z,1008.86
2018-12-14T23:02:24.006Z,1008.85
2018-12-14T23:03:24.024Z,1008.78
2018-12-14T23:04:24.044Z,1008.83
2018-12-14T23:05:24.064Z,1008.79
2018-12-14T23:06:24.083Z,1008.81
2018-12-14T23:07:24.105Z,1008.83
2018-12-14T23:08:24.128Z,1008.85
2018-12-14T23:09:24.145Z,1008.79
2018-12-14T23:10:24.161Z,1008.79
2018-12-14T23:11:24.184Z,1008.81
2018-12-14T23:12:24.199Z,1008.83
2018-12-14T23:13:24.223Z,1008.79
2018-12-14T23:14:24.242Z,1008.8
2018-12-14T23:15:24.256Z,1008.85
2018-12-14T23:16:24.276Z,1008.82
2018-12-14T23:17:24.295Z,1008.86
2018-12-14T23:18:24.316Z,1008.86
2018-12-14T23:19:24.333Z,1008.85
2018-12-14T23:20:24.357Z,1008.86
2018-12-14T23:21:24.372Z,1008.85
2018-12-14T23:22:24.390Z,1008.81
2018-12-14T23:23:24.410Z,1008.79
2018-12-14T23:24:24.432Z,1008.83
2018-12-14T23:25:24.448Z,1008.79
2018-12-14T23:26:24.468Z,1008.78
2018-12-14T23:27:24.485Z,1008.76
2018-12-14T23:28:24.506Z,1008.75
2018-12-14T23:29:24.524Z,1008.72
2018-12-14T23:30:24.543Z,1008.73
2018-12-14T23:31:24.563Z,1008.75
2018-12-14T23:32:24.588Z,1008.74
2018-12-14T23:33:24.600Z,1008.73
2018-12-14T23:34:24.619Z,1008.76
2018-12-14T23:35:24.638Z,1008.72
2018-12-14T23:36:24.658Z,1008.73
2018-12-14T23:37:24.675Z,1008.75
2018-12-14T23:38:24.694Z,1008.74
2018-12-14T23:39:24.722Z,1008.72
2018-12-14T23:40:24.733Z,1008.76
2018-12-14T23:41:24.755Z,1008.75
2018-12-14T23:42:24.770Z,1008.73
2018-12-14T23:43:24.790Z,1008.75
2018-12-14T23:44:24.807Z,1008.79
2018-12-14T23:45:24.828Z,1008.81
2018-12-14T23:46:24.844Z,1008.78
2018-12-14T23:47:24.867Z,1008.82
2018-12-14T23:48:24.882Z,1008.79
2018-12-14T23:49:24.909Z,1008.79
2018-12-14T23:50:24.920Z,1008.76
2018-12-14T23:51:24.942Z,1008.76
2018-12-14T23:52:24.956Z,1008.73
2018-12-14T23:53:24.976Z,1008.74
2018-12-14T23:54:25.023Z,1008.78
2018-12-14T23:55:25.013Z,1008.79
2018-12-14T23:56:25.031Z,1008.8
2018-12-14T23:57:25.052Z,1008.82
2018-12-14T23:58:25.074Z,1008.77
2018-12-14T23:59:25.087Z,1008.79
